Time;durP1;ratioP1;P1;durP2;ratioP2;P2;SDS_P1;SDS_P2;PMS_P1;PMS_P2;Temp;Humidity;BMP_temperature;BMP_pressure;BME280_temperature;BME280_humidity;BME280_pressure;Samples;Min_cycle;Max_cycle;Signal;HPM_P1;HPM_P2
2023/04/13 00:02:17;;;;;;;5.20;1.20;;;;;;;;;;4975473;28;20826;-81
2023/04/13 00:04:43;;;;;;;2.80;0.80;;;;;;;;;;4975355;28;20566;-80
2023/04/13 00:07:13;;;;;;;2.20;1.27;;;;;;;;;;4975417;28;20455;-81
2023/04/13 00:09:39;;;;;;;2.00;1.17;;;;;;;;;;4975106;28;20835;-81
2023/04/13 00:12:05;;;;;;;6.63;1.53;;;;;;;;;;4975358;28;20513;-81
2023/04/13 00:14:34;;;;;;;2.67;0.97;;;;;;;;;;4975272;28;20423;-81
2023/04/13 00:17:01;;;;;;;1.90;0.67;;;;;;;;;;4975187;28;20414;-81
2023/04/13 00:19:27;;;;;;;2.00;1.40;;;;;;;;;;4990150;28;20427;-81
2023/04/13 00:21:53;;;;;;;4.07;2.00;;;;;;;;;;4990072;28;20481;-81
2023/04/13 00:24:19;;;;;;;4.03;1.40;;;;;;;;;;4974870;28;20468;-81
2023/04/13 00:26:46;;;;;;;4.13;1.50;;;;;;;;;;4975050;28;20814;-81
2023/04/13 00:29:12;;;;;;;2.77;0.90;;;;;;;;;;4974524;28;20561;-81
2023/04/13 00:31:38;;;;;;;2.60;1.50;;;;;;;;;;4974999;28;20427;-81
2023/04/13 00:34:04;;;;;;;2.10;0.97;;;;;;;;;;4974953;28;20481;-81
2023/04/13 00:36:30;;;;;;;4.10;0.93;;;;;;;;;;4989788;28;20825;-82
2023/04/13 00:38:57;;;;;;;4.53;1.63;;;;;;;;;;4989705;28;20435;-81
2023/04/13 00:41:24;;;;;;;3.10;2.30;;;;;;;;;;4974440;28;20780;-81
2023/04/13 00:43:51;;;;;;;1.83;1.03;;;;;;;;;;4974685;28;20971;-81
2023/04/13 00:46:18;;;;;;;1.73;1.10;;;;;;;;;;4974804;28;20423;-80
2023/04/13 00:48:44;;;;;;;2.20;1.30;;;;;;;;;;4989590;28;20765;-81
2023/04/13 00:51:11;;;;;;;2.30;1.80;;;;;;;;;;4974697;28;20823;-79
2023/04/13 00:53:39;;;;;;;5.90;1.47;;;;;;;;;;4974419;28;20425;-80
2023/04/13 00:56:05;;;;;;;4.83;2.17;;;;;;;;;;4989174;28;20432;-80
2023/04/13 00:58:31;;;;;;;7.00;1.90;;;;;;;;;;4974521;28;20408;-80
2023/04/13 01:00:57;;;;;;;4.40;2.10;;;;;;;;;;4974469;28;20434;-81
2023/04/13 01:03:24;;;;;;;6.53;2.17;;;;;;;;;;4974427;28;20411;-82
2023/04/13 01:06:10;;;;;;;4.23;2.40;;;;;;;;;;4974447;28;20536;-82
2023/04/13 01:08:38;;;;;;;5.07;1.63;;;;;;;;;;4974446;28;21004;-82
2023/04/13 01:11:06;;;;;;;1.90;0.90;;;;;;;;;;4974013;28;20517;-84
2023/04/13 01:13:43;;;;;;;3.80;2.30;;;;;;;;;;4989263;28;20420;-81
2023/04/13 01:16:12;;;;;;;5.20;2.00;;;;;;;;;;4974258;28;20426;-81
2023/04/13 01:18:40;;;;;;;4.43;1.90;;;;;;;;;;4989182;28;20971;-82
2023/04/13 01:21:07;;;;;;;4.03;1.77;;;;;;;;;;4974275;28;20423;-81
2023/04/13 01:23:33;;;;;;;3.33;2.13;;;;;;;;;;4951403;28;20421;-82
2023/04/13 01:26:03;;;;;;;5.17;2.30;;;;;;;;;;4973863;28;20436;-82
2023/04/13 01:28:29;;;;;;;7.30;2.83;;;;;;;;;;4974236;28;20496;-82
2023/04/13 01:30:57;;;;;;;4.77;2.93;;;;;;;;;;4974128;28;20516;-81
2023/04/13 01:33:24;;;;;;;4.00;2.60;;;;;;;;;;4974044;28;20413;-81
2023/04/13 01:35:50;;;;;;;5.87;2.70;;;;;;;;;;4974128;28;20413;-81
2023/04/13 01:38:23;;;;;;;5.33;3.23;;;;;;;;;;4974098;28;20508;-81
2023/04/13 01:40:49;;;;;;;4.80;2.37;;;;;;;;;;4974757;28;20417;-80
2023/04/13 01:43:15;;;;;;;4.60;3.67;;;;;;;;;;4978075;28;20454;-80
2023/04/13 01:45:44;;;;;;;5.03;2.70;;;;;;;;;;4977963;28;20502;-80
2023/04/13 01:48:22;;;;;;;6.27;3.23;;;;;;;;;;4977998;28;20408;-81
2023/04/13 01:50:50;;;;;;;5.17;3.10;;;;;;;;;;4977945;28;20413;-81
2023/04/13 01:53:23;;;;;;;5.83;3.20;;;;;;;;;;4977817;28;20415;-81
2023/04/13 01:55:49;;;;;;;5.70;3.40;;;;;;;;;;4977300;28;20554;-81
2023/04/13 01:58:16;;;;;;;5.13;2.70;;;;;;;;;;4977849;28;20872;-81
2023/04/13 02:00:42;;;;;;;5.57;3.37;;;;;;;;;;4976614;28;20408;-81
2023/04/13 02:03:09;;;;;;;7.37;4.20;;;;;;;;;;4977691;28;20412;-80
2023/04/13 02:05:35;;;;;;;6.83;3.63;;;;;;;;;;4977690;28;20980;-80
2023/04/13 02:08:05;;;;;;;8.73;4.60;;;;;;;;;;4977607;28;20413;-80
2023/04/13 02:10:33;;;;;;;5.27;3.13;;;;;;;;;;4977297;28;20414;-82
2023/04/13 02:12:58;;;;;;;8.20;3.63;;;;;;;;;;4977518;28;20507;-81
2023/04/13 02:15:25;;;;;;;4.90;3.90;;;;;;;;;;4977425;28;20892;-81
2023/04/13 02:17:51;;;;;;;6.83;3.80;;;;;;;;;;4977446;28;20424;-82
2023/04/13 02:20:17;;;;;;;8.80;3.33;;;;;;;;;;4992320;28;20419;-82
2023/04/13 02:22:44;;;;;;;6.03;3.37;;;;;;;;;;4977354;28;20447;-81
2023/04/13 02:25:10;;;;;;;8.50;4.67;;;;;;;;;;4976920;28;20571;-82
2023/04/13 02:27:37;;;;;;;8.43;4.47;;;;;;;;;;4977129;28;20404;-82
2023/04/13 02:30:04;;;;;;;7.60;3.80;;;;;;;;;;4977238;28;20424;-82
2023/04/13 02:32:31;;;;;;;8.63;4.30;;;;;;;;;;4977162;28;20433;-82
2023/04/13 02:34:58;;;;;;;9.17;4.07;;;;;;;;;;4977130;28;20415;-81
2023/04/13 02:37:24;;;;;;;9.13;3.77;;;;;;;;;;4977041;28;20459;-82
2023/04/13 02:39:50;;;;;;;7.57;5.20;;;;;;;;;;4976716;28;20968;-82
2023/04/13 02:42:16;;;;;;;7.47;4.90;;;;;;;;;;4976995;28;20463;-81
2023/04/13 02:44:42;;;;;;;7.90;5.13;;;;;;;;;;4976875;28;20835;-82
2023/04/13 02:47:08;;;;;;;10.50;4.47;;;;;;;;;;4976868;28;20494;-82
2023/04/13 02:49:35;;;;;;;11.90;6.33;;;;;;;;;;4976625;28;20422;-84
2023/04/13 02:52:01;;;;;;;9.63;5.23;;;;;;;;;;4969888;28;20428;-83
2023/04/13 02:54:30;;;;;;;8.97;5.03;;;;;;;;;;4995680;28;20466;-83
2023/04/13 02:56:56;;;;;;;8.70;5.40;;;;;;;;;;4996185;28;20426;-83
2023/04/13 02:59:22;;;;;;;10.63;4.77;;;;;;;;;;4995967;28;20498;-82
2023/04/13 03:01:48;;;;;;;9.40;5.37;;;;;;;;;;4994733;28;20459;-83
2023/04/13 03:04:14;;;;;;;9.63;5.40;;;;;;;;;;4995955;28;20467;-82
2023/04/13 03:06:43;;;;;;;7.50;3.40;;;;;;;;;;4994650;28;20436;-82
2023/04/13 03:09:08;;;;;;;11.27;5.30;;;;;;;;;;4995679;28;20820;-83
2023/04/13 03:11:34;;;;;;;6.97;4.30;;;;;;;;;;4995974;28;20428;-82
2023/04/13 03:14:00;;;;;;;11.80;5.23;;;;;;;;;;4994584;28;20408;-82
2023/04/13 03:16:27;;;;;;;12.03;4.53;;;;;;;;;;4995661;28;20424;-81
2023/04/13 03:18:53;;;;;;;10.10;4.47;;;;;;;;;;4995719;28;20415;-82
2023/04/13 03:21:19;;;;;;;7.23;5.30;;;;;;;;;;4995703;28;20419;-82
2023/04/13 03:23:45;;;;;;;8.97;5.03;;;;;;;;;;4993994;28;20525;-81
2023/04/13 03:26:11;;;;;;;9.13;4.93;;;;;;;;;;4995585;28;20426;-81
2023/04/13 03:28:37;;;;;;;8.97;5.43;;;;;;;;;;4995563;28;20904;-82
2023/04/13 03:31:03;;;;;;;15.00;6.53;;;;;;;;;;4995573;28;20884;-80
2023/04/13 03:33:29;;;;;;;10.70;5.70;;;;;;;;;;4994163;28;20521;-81
2023/04/13 03:35:55;;;;;;;7.03;5.03;;;;;;;;;;4995434;28;20411;-82
2023/04/13 03:38:21;;;;;;;5.73;4.53;;;;;;;;;;4995369;28;20407;-82
2023/04/13 03:40:47;;;;;;;8.53;4.60;;;;;;;;;;4994937;28;20458;-81
2023/04/13 03:43:12;;;;;;;10.67;5.97;;;;;;;;;;4994089;28;20990;-83
2023/04/13 03:45:38;;;;;;;11.90;6.33;;;;;;;;;;4995109;28;20565;-82
2023/04/13 03:48:04;;;;;;;10.50;5.70;;;;;;;;;;4993904;28;20847;-82
2023/04/13 03:50:31;;;;;;;11.77;6.50;;;;;;;;;;4993849;28;20502;-82
2023/04/13 03:52:57;;;;;;;8.07;4.40;;;;;;;;;;4995101;28;20915;-82
2023/04/13 03:55:23;;;;;;;10.00;6.57;;;;;;;;;;4994399;28;20469;-81
2023/04/13 03:57:49;;;;;;;12.67;5.60;;;;;;;;;;4994862;28;20415;-82
2023/04/13 04:00:15;;;;;;;11.80;6.10;;;;;;;;;;4994879;28;20973;-82
2023/04/13 04:02:41;;;;;;;10.67;6.70;;;;;;;;;;4993320;28;20465;-82
2023/04/13 04:05:08;;;;;;;13.83;6.10;;;;;;;;;;4994273;28;20481;-81
2023/04/13 04:07:34;;;;;;;12.27;5.80;;;;;;;;;;4994777;28;20415;-81
2023/04/13 04:09:59;;;;;;;10.43;6.00;;;;;;;;;;4994324;28;20561;-81
2023/04/13 04:12:25;;;;;;;13.40;6.43;;;;;;;;;;4994664;28;20415;-81
2023/04/13 04:14:51;;;;;;;14.17;6.77;;;;;;;;;;4993411;28;20832;-81
2023/04/13 04:17:20;;;;;;;12.07;5.60;;;;;;;;;;4994365;28;20442;-82
2023/04/13 04:19:49;;;;;;;13.90;6.83;;;;;;;;;;4970617;28;20465;-81
2023/04/13 04:22:18;;;;;;;12.50;6.00;;;;;;;;;;4982487;28;20419;-81
2023/04/13 04:24:44;;;;;;;16.37;7.27;;;;;;;;;;4992475;28;20474;-81
2023/04/13 04:27:13;;;;;;;10.67;6.47;;;;;;;;;;4993095;28;20780;-81
2023/04/13 04:29:39;;;;;;;10.73;6.27;;;;;;;;;;4982520;28;20426;-81
2023/04/13 04:32:09;;;;;;;12.90;6.60;;;;;;;;;;4993394;28;20870;-80
2023/04/13 04:34:35;;;;;;;15.27;6.77;;;;;;;;;;4994451;28;20413;-82
2023/04/13 04:37:04;;;;;;;9.93;6.10;;;;;;;;;;4994289;28;20966;-81
2023/04/13 04:39:34;;;;;;;15.10;7.40;;;;;;;;;;4994026;28;20414;-82
2023/04/13 04:42:03;;;;;;;11.03;7.23;;;;;;;;;;4994157;28;20453;-81
2023/04/13 04:44:29;;;;;;;11.83;7.07;;;;;;;;;;4993375;28;20569;-82
2023/04/13 04:46:57;;;;;;;18.15;10.45;;;;;;;;;;4993182;28;20416;-81
2023/04/13 04:49:24;;;;;;;17.50;8.30;;;;;;;;;;4994171;28;20654;-81
2023/04/13 04:51:50;;;;;;;12.90;6.73;;;;;;;;;;4994154;28;20458;-82
2023/04/13 04:54:17;;;;;;;16.23;8.17;;;;;;;;;;4993568;28;20467;-82
2023/04/13 04:56:44;;;;;;;16.73;8.23;;;;;;;;;;4993965;28;20480;-83
2023/04/13 04:59:10;;;;;;;15.20;8.33;;;;;;;;;;4993887;28;20411;-83
2023/04/13 05:01:37;;;;;;;13.10;6.93;;;;;;;;;;5009011;28;20934;-82
2023/04/13 05:04:03;;;;;;;13.83;9.10;;;;;;;;;;4993824;28;20472;-83
2023/04/13 05:06:35;;;;;;;11.63;5.93;;;;;;;;;;4993852;28;20415;-83
2023/04/13 05:09:03;;;;;;;18.43;9.10;;;;;;;;;;4993656;28;20407;-83
2023/04/13 05:11:29;;;;;;;13.37;7.87;;;;;;;;;;4993805;28;21010;-83
2023/04/13 05:13:58;;;;;;;13.13;6.87;;;;;;;;;;4993761;28;20777;-83
2023/04/13 05:16:29;;;;;;;17.70;9.63;;;;;;;;;;4993525;28;20766;-82
2023/04/13 05:18:55;;;;;;;12.23;6.27;;;;;;;;;;4993687;28;20765;-83
2023/04/13 05:21:21;;;;;;;14.37;7.07;;;;;;;;;;4993583;28;20490;-83
2023/04/13 05:23:48;;;;;;;17.30;8.07;;;;;;;;;;4993151;28;20465;-82
2023/04/13 05:26:15;;;;;;;14.23;7.57;;;;;;;;;;4993535;28;20419;-82
2023/04/13 05:28:41;;;;;;;14.00;8.20;;;;;;;;;;5008755;28;20983;-83
2023/04/13 05:31:07;;;;;;;16.63;8.80;;;;;;;;;;5008145;28;20566;-82
2023/04/13 05:33:33;;;;;;;16.17;8.20;;;;;;;;;;4993461;28;20759;-83
2023/04/13 05:36:00;;;;;;;17.00;8.27;;;;;;;;;;4993470;28;20556;-83
2023/04/13 05:38:26;;;;;;;15.53;8.10;;;;;;;;;;4952207;28;20444;-82
2023/04/13 05:40:53;;;;;;;17.00;8.37;;;;;;;;;;4993484;28;20421;-83
2023/04/13 05:43:19;;;;;;;15.43;8.50;;;;;;;;;;4993356;28;20520;-82
2023/04/13 05:45:45;;;;;;;11.37;7.00;;;;;;;;;;4992948;28;21076;-82
2023/04/13 05:48:12;;;;;;;10.47;6.10;;;;;;;;;;4993426;28;20508;-83
2023/04/13 05:50:37;;;;;;;12.17;6.03;;;;;;;;;;4993379;28;20511;-82
2023/04/13 05:53:06;;;;;;;9.17;6.53;;;;;;;;;;4993266;28;20411;-82
2023/04/13 05:55:32;;;;;;;10.07;6.23;;;;;;;;;;5008121;28;20482;-82
2023/04/13 05:58:02;;;;;;;6.33;4.03;;;;;;;;;;4993360;28;20508;-82
2023/04/13 06:00:28;;;;;;;8.60;5.07;;;;;;;;;;4993285;28;20469;-82
2023/04/13 06:02:56;;;;;;;8.13;5.33;;;;;;;;;;4993376;28;20507;-81
2023/04/13 06:05:23;;;;;;;6.93;4.57;;;;;;;;;;4993209;28;20503;-82
2023/04/13 06:07:49;;;;;;;11.23;4.40;;;;;;;;;;4993222;28;20408;-81
2023/04/13 06:10:15;;;;;;;4.17;3.30;;;;;;;;;;4992805;28;20411;-81
2023/04/13 06:12:41;;;;;;;7.70;4.30;;;;;;;;;;4993157;28;20896;-80
2023/04/13 06:15:10;;;;;;;7.10;2.37;;;;;;;;;;4992976;28;20427;-80
2023/04/13 06:17:36;;;;;;;8.30;3.47;;;;;;;;;;4993075;28;20449;-79
2023/04/13 06:20:05;;;;;;;4.40;2.80;;;;;;;;;;4993354;28;20418;-81
2023/04/13 06:22:32;;;;;;;7.23;2.40;;;;;;;;;;4993089;28;20520;-80
2023/04/13 06:24:57;;;;;;;4.10;2.10;;;;;;;;;;4992667;28;20478;-81
2023/04/13 06:27:23;;;;;;;4.50;2.10;;;;;;;;;;4994914;28;20413;-81
2023/04/13 06:29:50;;;;;;;5.00;1.90;;;;;;;;;;4996837;28;20428;-82
2023/04/13 06:32:16;;;;;;;7.83;2.10;;;;;;;;;;5011979;28;20428;-81
2023/04/13 06:34:44;;;;;;;3.73;2.40;;;;;;;;;;4996599;28;20436;-82
2023/04/13 06:37:10;;;;;;;3.93;2.33;;;;;;;;;;4996450;28;20426;-82
2023/04/13 06:39:36;;;;;;;3.70;1.20;;;;;;;;;;4996135;28;20476;-82
2023/04/13 06:42:03;;;;;;;3.43;1.40;;;;;;;;;;4996499;28;20748;-81
2023/04/13 06:44:29;;;;;;;2.97;1.47;;;;;;;;;;4996479;28;20462;-83
2023/04/13 06:46:55;;;;;;;3.73;1.47;;;;;;;;;;4996432;28;20416;-82
2023/04/13 06:49:21;;;;;;;3.43;1.97;;;;;;;;;;4996415;28;20415;-83
2023/04/13 06:51:47;;;;;;;2.00;1.07;;;;;;;;;;4996346;28;20421;-81
2023/04/13 06:54:13;;;;;;;4.50;1.70;;;;;;;;;;4995789;28;20521;-78
2023/04/13 06:56:39;;;;;;;3.43;1.43;;;;;;;;;;4996192;28;20444;-80
2023/04/13 06:59:05;;;;;;;2.73;0.93;;;;;;;;;;4996104;28;20408;-80
2023/04/13 07:01:31;;;;;;;1.50;0.87;;;;;;;;;;4996265;28;20450;-80
2023/04/13 07:03:57;;;;;;;3.10;1.17;;;;;;;;;;4996134;28;20504;-82
2023/04/13 07:06:26;;;;;;;2.13;0.63;;;;;;;;;;4955194;28;20432;-79
2023/04/13 07:08:52;;;;;;;4.83;1.40;;;;;;;;;;4995755;28;20412;-80
2023/04/13 07:11:18;;;;;;;3.37;1.47;;;;;;;;;;4995890;28;20417;-79
2023/04/13 07:13:44;;;;;;;2.77;0.60;;;;;;;;;;4995871;28;20489;-81
2023/04/13 07:16:13;;;;;;;1.50;0.80;;;;;;;;;;4995964;28;20842;-80
2023/04/13 07:18:39;;;;;;;1.07;0.53;;;;;;;;;;4995391;28;20459;-80
2023/04/13 07:21:06;;;;;;;0.70;0.30;;;;;;;;;;4995773;28;20812;-81
2023/04/13 07:23:32;;;;;;;1.60;0.57;;;;;;;;;;4995421;28;20425;-79
2023/04/13 07:25:58;;;;;;;3.00;0.80;;;;;;;;;;4995564;28;20476;-80
2023/04/13 07:28:24;;;;;;;1.07;0.50;;;;;;;;;;4995637;28;20405;-80
2023/04/13 07:30:50;;;;;;;1.10;0.73;;;;;;;;;;4994851;28;20441;-80
2023/04/13 07:33:16;;;;;;;1.17;0.60;;;;;;;;;;4995442;28;20404;-81
2023/04/13 07:35:42;;;;;;;1.47;0.43;;;;;;;;;;4995498;28;20492;-82
2023/04/13 07:38:08;;;;;;;1.30;0.47;;;;;;;;;;4994015;28;20421;-80
2023/04/13 07:40:37;;;;;;;0.73;0.23;;;;;;;;;;4995407;28;20415;-83
2023/04/13 07:43:03;;;;;;;1.20;0.30;;;;;;;;;;4995101;28;20559;-80
2023/04/13 07:45:30;;;;;;;1.43;0.30;;;;;;;;;;4992848;28;20566;-80
2023/04/13 07:47:56;;;;;;;0.80;0.40;;;;;;;;;;4994140;28;20408;-79
2023/04/13 07:50:22;;;;;;;1.83;0.20;;;;;;;;;;4994352;28;20419;-83
2023/04/13 07:52:47;;;;;;;2.60;0.40;;;;;;;;;;4993933;28;20411;-81
2023/04/13 07:55:14;;;;;;;4.50;1.10;;;;;;;;;;4993771;28;20467;-80
2023/04/13 07:57:40;;;;;;;8.53;5.13;;;;;;;;;;4994004;28;20411;-81
2023/04/13 08:00:07;;;;;;;0.93;0.50;;;;;;;;;;5009675;28;20419;-80
2023/04/13 08:02:33;;;;;;;2.40;0.23;;;;;;;;;;4994831;28;20523;-79
2023/04/13 08:04:59;;;;;;;1.07;0.20;;;;;;;;;;5009861;28;20478;-80
2023/04/13 08:07:26;;;;;;;0.87;0.30;;;;;;;;;;4995032;28;20828;-80
2023/04/13 08:09:52;;;;;;;1.87;0.30;;;;;;;;;;4965795;28;21074;-80
2023/04/13 08:12:18;;;;;;;1.80;0.40;;;;;;;;;;4984339;28;20412;-80
2023/04/13 08:14:45;;;;;;;1.77;0.40;;;;;;;;;;4994653;28;20467;-79
2023/04/13 08:17:11;;;;;;;0.70;0.20;;;;;;;;;;4994731;28;20417;-79
2023/04/13 08:19:37;;;;;;;0.80;0.20;;;;;;;;;;4994621;28;20418;-80
2023/04/13 08:22:03;;;;;;;0.77;0.20;;;;;;;;;;4994504;28;20422;-79
2023/04/13 08:24:29;;;;;;;1.20;0.20;;;;;;;;;;5009205;28;20491;-80
2023/04/13 08:26:57;;;;;;;1.43;0.30;;;;;;;;;;5009560;28;20417;-81
2023/04/13 08:29:23;;;;;;;1.60;0.23;;;;;;;;;;4994529;28;20421;-82
2023/04/13 08:31:49;;;;;;;1.93;0.53;;;;;;;;;;4994381;28;20910;-78
2023/04/13 08:34:18;;;;;;;3.60;0.20;;;;;;;;;;5009312;28;21068;-79
2023/04/13 08:36:47;;;;;;;1.73;1.00;;;;;;;;;;4994398;28;20425;-79
2023/04/13 08:39:13;;;;;;;2.10;0.47;;;;;;;;;;4993928;28;20902;-78
2023/04/13 08:41:48;;;;;;;0.80;0.20;;;;;;;;;;5009250;28;20444;-78
2023/04/13 08:44:17;;;;;;;1.20;0.27;;;;;;;;;;4994017;28;20952;-78
2023/04/13 08:46:45;;;;;;;1.73;0.40;;;;;;;;;;4994053;28;20480;-79
2023/04/13 08:49:11;;;;;;;0.60;0.20;;;;;;;;;;4993341;28;20414;-79
2023/04/13 08:51:37;;;;;;;0.60;0.20;;;;;;;;;;5009063;28;20852;-79
2023/04/13 08:54:04;;;;;;;1.13;0.20;;;;;;;;;;5008522;28;20506;-78
2023/04/13 08:56:31;;;;;;;1.63;0.40;;;;;;;;;;5009063;28;20939;-81
2023/04/13 08:59:00;;;;;;;1.57;0.20;;;;;;;;;;4993919;28;20923;-79
2023/04/13 09:01:26;;;;;;;2.60;0.40;;;;;;;;;;4993871;28;20406;-77
2023/04/13 09:04:02;;;;;;;1.17;0.30;;;;;;;;;;4993667;28;21010;-79
2023/04/13 09:06:33;;;;;;;1.00;0.20;;;;;;;;;;5009059;28;20450;-80
2023/04/13 09:09:02;;;;;;;1.90;0.30;;;;;;;;;;5008524;28;20417;-78
2023/04/13 09:11:28;;;;;;;0.40;0.30;;;;;;;;;;5008813;28;20444;-79
2023/04/13 09:13:54;;;;;;;2.00;0.20;;;;;;;;;;4975826;28;20403;-77
2023/04/13 09:16:21;;;;;;;0.60;0.20;;;;;;;;;;4986179;28;20430;-79
2023/04/13 09:18:51;;;;;;;1.37;0.20;;;;;;;;;;4993705;28;20416;-80
2023/04/13 09:21:17;;;;;;;1.73;0.30;;;;;;;;;;4993544;28;20426;-80
2023/04/13 09:23:56;;;;;;;0.63;0.20;;;;;;;;;;4993238;28;20421;-79
2023/04/13 09:26:22;;;;;;;1.00;0.20;;;;;;;;;;4993619;28;20436;-79
2023/04/13 09:28:48;;;;;;;2.13;0.30;;;;;;;;;;4993131;28;20418;-79
2023/04/13 09:31:15;;;;;;;1.00;0.20;;;;;;;;;;5008674;28;20440;-79
2023/04/13 09:33:48;;;;;;;0.40;0.20;;;;;;;;;;4993455;28;20501;-78
2023/04/13 09:36:15;;;;;;;0.60;0.10;;;;;;;;;;5008708;28;20459;-78
2023/04/13 09:38:45;;;;;;;0.73;0.30;;;;;;;;;;4993170;28;20402;-81
2023/04/13 09:41:11;;;;;;;2.93;0.27;;;;;;;;;;4993623;28;20460;-81
2023/04/13 09:43:38;;;;;;;0.87;0.20;;;;;;;;;;4993448;28;20423;-80
2023/04/13 09:46:04;;;;;;;1.10;0.20;;;;;;;;;;5008209;28;20566;-78
2023/04/13 09:48:31;;;;;;;1.33;0.30;;;;;;;;;;5008620;28;20432;-81
2023/04/13 09:51:03;;;;;;;2.50;0.20;;;;;;;;;;4993434;28;20476;-78
2023/04/13 09:53:39;;;;;;;1.50;0.30;;;;;;;;;;4992916;28;20930;-77
2023/04/13 09:56:05;;;;;;;0.90;0.33;;;;;;;;;;4993456;28;20419;-78
2023/04/13 09:58:31;;;;;;;2.03;0.23;;;;;;;;;;5008482;28;20421;-79
2023/04/13 10:00:57;;;;;;;1.00;0.43;;;;;;;;;;4993360;28;20420;-79
2023/04/13 10:03:23;;;;;;;1.63;0.43;;;;;;;;;;5011893;28;20413;-79
2023/04/13 10:05:49;;;;;;;0.57;0.30;;;;;;;;;;5012251;28;20903;-78
2023/04/13 10:08:16;;;;;;;2.83;0.30;;;;;;;;;;4996689;28;20494;-78
2023/04/13 10:10:41;;;;;;;0.90;0.20;;;18.80;1.00;;;;;;5012070;28;20523;-79
2023/04/13 10:13:27;;;;;;;1.70;0.20;;;19.10;1.00;;;;;;4997050;28;20521;-79
2023/04/13 10:16:18;;;;;;;0.90;0.23;;;19.80;1.00;;;;;;4971366;28;20190;-80
2023/04/13 10:19:00;;;;;;;1.80;0.20;;;20.00;1.00;;;;;;4996996;28;20450;-79
2023/04/13 10:21:34;;;;;;;1.90;0.57;;;21.00;1.00;;;;;;4996866;28;20506;-80
2023/04/13 10:24:03;;;;;;;2.10;0.20;;;21.20;1.00;;;;;;4996461;28;20427;-79
2023/04/13 10:26:30;;;;;;;1.53;0.20;;;21.50;1.00;;;;;;4995506;28;20431;-79
2023/04/13 10:28:55;;;;;;;0.73;0.20;;;20.80;1.00;;;;;;4996676;28;20415;-79
2023/04/13 10:31:21;;;;;;;1.70;0.20;;;20.80;1.00;;;;;;4996696;28;20425;-79
2023/04/13 10:33:48;;;;;;;1.33;0.30;;;21.00;1.00;;;;;;5011655;28;20334;-79
2023/04/13 10:36:13;;;;;;;0.97;0.20;;;21.80;1.00;;;;;;4996581;28;20712;-79
2023/04/13 10:38:45;;;;;;;9.70;8.70;;;20.40;1.00;;;;;;4996243;28;20414;-79
2023/04/13 10:41:24;;;;;;;5.63;4.10;;;20.90;1.00;;;;;;4996373;28;20198;-78
2023/04/13 10:44:00;;;;;;;1.80;0.40;;;21.70;1.00;;;;;;4996416;28;20418;-79
2023/04/13 10:46:27;;;;;;;0.83;0.20;;;21.30;1.00;;;;;;4996547;28;20807;-79
2023/04/13 10:48:54;;;;;;;0.80;0.20;;;20.50;1.00;;;;;;4996395;28;20421;-78
2023/04/13 10:51:20;;;;;;;2.10;0.30;;;20.60;1.00;;;;;;4996258;28;20414;-78
2023/04/13 10:53:45;;;;;;;1.67;0.20;;;21.00;1.00;;;;;;4995700;28;20418;-79
2023/04/13 10:56:18;;;;;;;2.57;1.37;;;21.30;1.00;;;;;;4996224;28;20279;-77
2023/04/13 10:58:51;;;;;;;2.13;0.60;;;21.10;1.00;;;;;;4996039;28;20175;-78
2023/04/13 11:01:17;;;;;;;0.77;0.20;;;21.00;1.00;;;;;;4996091;28;20494;-77
2023/04/13 11:03:43;;;;;;;1.23;0.80;;;21.40;1.00;;;;;;4995787;28;20517;-82
2023/04/13 11:06:09;;;;;;;1.60;0.93;;;21.90;1.00;;;;;;4996038;28;20203;-81
2023/04/13 11:08:38;;;;;;;1.37;0.20;;;22.00;1.00;;;;;;4995720;28;20414;-81
2023/04/13 11:11:04;;;;;;;4.43;0.20;;;22.50;1.00;;;;;;4994704;28;20427;-79
2023/04/13 11:13:31;;;;;;;0.70;0.23;;;22.90;1.00;;;;;;4995650;28;20515;-78
2023/04/13 11:16:04;;;;;;;0.80;0.30;;;22.80;1.00;;;;;;4994420;28;20258;-80
2023/04/13 11:18:30;;;;;;;0.60;0.20;;;22.70;1.00;;;;;;4994441;28;20434;-79
2023/04/13 11:20:56;;;;;;;0.60;0.30;;;22.40;1.00;;;;;;4995712;28;20811;-80
2023/04/13 11:23:22;;;;;;;2.10;0.50;;;22.30;1.00;;;;;;4995454;28;20419;-80
2023/04/13 11:25:53;;;;;;;1.10;0.30;;;22.80;1.00;;;;;;5010791;28;20273;-81
2023/04/13 11:28:21;;;;;;;1.17;0.20;;;23.20;1.00;;;;;;4995714;28;20454;-80
2023/04/13 11:30:54;;;;;;;0.60;0.30;;;22.90;1.00;;;;;;4995611;28;20407;-81
2023/04/13 11:33:28;;;;;;;0.53;0.33;;;21.40;1.00;;;;;;4965568;28;20449;-78
2023/04/13 11:35:55;;;;;;;0.47;0.20;;;21.00;99.90;;;;;;4993041;28;20415;-78
2023/04/13 11:38:22;;;;;;;1.53;0.30;;;20.70;99.90;;;;;;4993944;28;20429;-80
2023/04/13 11:40:51;;;;;;;0.90;0.20;;;20.60;99.90;;;;;;4995537;28;20451;-80
2023/04/13 11:43:18;;;;;;;0.80;0.20;;;20.50;99.90;;;;;;4993974;28;20506;-80
2023/04/13 11:45:46;;;;;;;9.20;7.30;;;20.40;99.90;;;;;;4994217;28;20978;-80
2023/04/13 11:48:13;;;;;;;4.17;2.77;;;20.80;99.90;;;;;;4995313;28;20981;-82
2023/04/13 11:50:42;;;;;;;1.10;0.20;;;21.10;99.90;;;;;;4995148;28;20426;-81
2023/04/13 11:53:08;;;;;;;1.43;0.50;;;21.00;99.90;;;;;;4993610;28;20510;-79
2023/04/13 11:55:35;;;;;;;1.40;0.70;;;20.90;99.90;;;;;;4994768;28;20530;-82
2023/04/13 11:58:07;;;;;;;1.23;0.40;;;21.10;99.90;;;;;;4994969;28;20425;-79
2023/04/13 12:00:36;;;;;;;1.70;0.47;;;21.20;14.50;;;;;;4995100;28;20415;-82
2023/04/13 12:03:04;;;;;;;1.83;0.37;;;21.70;35.40;;;;;;4994986;28;20502;-83
2023/04/13 12:05:31;;;;;;;1.70;0.40;;;22.00;41.80;;;;;;4994774;28;20522;-81
2023/04/13 12:07:57;;;;;;;1.03;0.40;;;22.50;99.90;;;;;;4993199;28;20415;-82
2023/04/13 12:10:27;;;;;;;0.43;0.30;;;22.70;99.90;;;;;;4994860;28;20426;-81
2023/04/13 12:13:02;;;;;;;1.20;0.40;;;23.00;99.90;;;;;;4994674;28;20510;-81
2023/04/13 12:15:30;;;;;;;0.97;0.43;;;22.80;99.90;;;;;;4994867;28;20450;-80
2023/04/13 12:17:58;;;;;;;2.10;0.50;;;22.60;99.90;;;;;;5009859;28;20423;-79
2023/04/13 12:20:25;;;;;;;0.90;0.30;;;22.60;99.90;;;;;;4993505;28;20827;-80
2023/04/13 12:22:51;;;;;;;0.93;0.30;;;22.70;99.90;;;;;;4994367;28;20817;-79
2023/04/13 12:25:22;;;;;;;0.90;0.40;;;23.30;99.90;;;;;;4992301;28;20478;-81
2023/04/13 12:27:52;;;;;;;1.67;0.40;;;24.10;99.90;;;;;;4993102;28;20481;-81
2023/04/13 12:30:20;;;;;;;1.80;0.67;;;24.30;99.90;;;;;;4993194;28;20431;-80
2023/04/13 12:32:47;;;;;;;0.60;0.37;;;24.40;99.90;;;;;;4992927;28;20442;-80
2023/04/13 12:35:14;;;;;;;1.27;0.60;;;23.20;1.00;;;;;;4992936;28;20411;-80
2023/04/13 12:37:42;;;;;;;1.40;1.10;;;22.90;1.00;;;;;;4992834;28;20414;-81
2023/04/13 12:40:11;;;;;;;1.27;0.97;;;22.70;1.00;;;;;;4992955;28;20432;-80
2023/04/13 12:42:37;;;;;;;1.07;0.30;;;22.20;1.00;;;;;;4993018;28;20410;-81
2023/04/13 12:45:03;;;;;;;1.33;0.53;;;22.30;1.00;;;;;;4992901;28;20991;-80
2023/04/13 12:47:28;;;;;;;1.13;0.70;;;22.90;1.00;;;;;;4991888;28;20442;-79
2023/04/13 12:49:55;;;;;;;7.03;5.20;;;22.60;1.00;;;;;;4994093;28;20423;-80
2023/04/13 12:52:20;;;;;;;7.83;5.47;;;22.00;1.00;;;;;;4951777;28;20187;-79
2023/04/13 12:54:46;;;;;;;1.30;0.67;;;21.30;99.90;;;;;;4992584;28;20478;-79
2023/04/13 12:57:15;;;;;;;1.33;0.57;;;20.70;99.90;;;;;;4994180;28;20182;-80
2023/04/13 12:59:42;;;;;;;1.77;0.70;;;20.50;99.90;;;;;;4993916;28;20180;-81
2023/04/13 13:02:07;;;;;;;0.77;0.50;;;19.50;99.90;;;;;;5009024;28;20453;-80
2023/04/13 13:04:33;;;;;;;2.30;0.50;;;18.90;99.90;;;;;;4992545;28;20465;-80
2023/04/13 13:06:59;;;;;;;1.53;0.30;;;18.40;99.90;;;;;;4992136;28;20254;-81
2023/04/13 13:09:25;;;;;;;0.97;0.60;;;18.10;99.90;;;;;;5008987;28;20272;-80
2023/04/13 13:11:51;;;;;;;1.53;0.67;;;17.50;99.90;;;;;;4992651;28;20578;-79
2023/04/13 13:14:19;;;;;;;11.10;8.73;;;17.10;99.90;;;;;;4992532;28;20430;-81
2023/04/13 13:16:44;;;;;;;6.90;4.80;;;17.00;99.90;;;;;;4992343;28;20186;-80
2023/04/13 13:19:13;;;;;;;1.30;0.93;;;16.60;99.90;;;;;;4992319;28;20870;-81
2023/04/13 13:21:40;;;;;;;1.17;0.60;;;16.90;99.90;;;;;;4993435;28;20192;-78
2023/04/13 13:24:09;;;;;;;1.57;0.73;;;16.90;99.90;;;;;;4993027;28;20420;-79
2023/04/13 13:26:56;;;;;;;2.67;0.90;;;17.00;99.90;;;;;;4993456;28;20490;-79
2023/04/13 13:29:22;;;;;;;1.27;0.90;;;16.80;99.90;;;;;;4991925;28;20988;-82
2023/04/13 13:31:50;;;;;;;2.37;1.40;;;17.00;99.90;;;;;;4993544;28;20419;-81
2023/04/13 13:34:15;;;;;;;1.63;1.50;;;16.90;99.90;;;;;;4976129;28;20525;-80
2023/04/13 13:36:41;;;;;;;3.80;1.30;;;16.80;99.90;;;;;;4996136;28;20510;-80
2023/04/13 13:39:06;;;;;;;2.00;1.30;;;17.00;99.90;;;;;;4997221;28;20253;-77
2023/04/13 13:41:32;;;;;;;1.27;0.90;;;17.20;99.90;;;;;;4997479;28;20182;-79
2023/04/13 13:43:57;;;;;;;2.40;1.03;;;16.90;99.90;;;;;;4997141;28;20572;-77
2023/04/13 13:46:23;;;;;;;1.30;0.90;;;16.50;99.90;;;;;;4996683;28;20194;-78
2023/04/13 13:48:48;;;;;;;1.70;1.07;;;16.20;99.90;;;;;;4997105;28;20228;-78
2023/04/13 13:51:14;;;;;;;1.47;0.77;;;16.30;99.90;;;;;;4995853;28;20185;-78
2023/04/13 13:53:39;;;;;;;2.47;0.87;;;16.60;99.90;;;;;;4995568;28;20186;-79
2023/04/13 13:56:05;;;;;;;1.97;0.80;;;16.70;99.90;;;;;;4996939;28;20731;-80
2023/04/13 13:58:31;;;;;;;1.97;1.00;;;16.90;99.90;;;;;;4996716;28;20181;-79
2023/04/13 14:00:56;;;;;;;1.80;1.30;;;16.60;99.90;;;;;;4956120;28;20208;-77
2023/04/13 14:03:22;;;;;;;1.73;1.20;;;16.50;99.90;;;;;;5012081;28;20186;-77
2023/04/13 14:05:50;;;;;;;2.30;0.93;;;16.40;99.90;;;;;;4996593;28;20212;-79
2023/04/13 14:08:15;;;;;;;2.03;0.73;;;16.30;99.90;;;;;;4996191;28;20182;-78